Time;durP1;ratioP1;P1;durP2;ratioP2;P2;SDS_P1;SDS_P2;PMS_P1;PMS_P2;Temp;Humidity;BMP_temperature;BMP_pressure;BME280_temperature;BME280_humidity;BME280_pressure;Samples;Min_cycle;Max_cycle;Signal;HPM_P1;HPM_P2
2022/03/02 00:00:45;;;;;;;13.10;8.45;;;;;;;;;;5114243;28;20193;-62
2022/03/02 00:03:11;;;;;;;14.18;8.93;;;;;;;;;;5103835;28;20195;-61
2022/03/02 00:05:37;;;;;;;15.57;9.30;;;;;;;;;;5095707;28;20717;-61
2022/03/02 00:08:04;;;;;;;15.70;9.50;;;;;;;;;;5095427;28;20187;-62
2022/03/02 00:10:30;;;;;;;14.27;9.05;;;;;;;;;;5095525;28;20174;-62
2022/03/02 00:12:56;;;;;;;14.38;8.98;;;;;;;;;;5095282;28;20176;-62
2022/03/02 00:15:22;;;;;;;13.57;9.55;;;;;;;;;;5095368;28;20595;-62
2022/03/02 00:17:47;;;;;;;14.43;9.75;;;;;;;;;;5095315;28;20599;-62
2022/03/02 00:20:14;;;;;;;17.20;9.55;;;;;;;;;;5095769;28;20164;-62
2022/03/02 00:22:40;;;;;;;16.25;9.88;;;;;;;;;;5094401;28;20197;-62
2022/03/02 00:25:06;;;;;;;15.38;9.00;;;;;;;;;;5095468;28;20237;-62
2022/03/02 00:27:32;;;;;;;17.85;9.82;;;;;;;;;;5095258;28;20167;-62
2022/03/02 00:29:58;;;;;;;17.58;9.75;;;;;;;;;;5095394;28;20174;-62
2022/03/02 00:32:25;;;;;;;14.82;9.48;;;;;;;;;;5095080;28;20167;-62
2022/03/02 00:34:51;;;;;;;14.88;8.88;;;;;;;;;;5094868;28;20596;-62
2022/03/02 00:37:17;;;;;;;16.70;9.93;;;;;;;;;;5094806;28;20170;-62
2022/03/02 00:39:44;;;;;;;16.38;9.93;;;;;;;;;;5094797;28;20164;-62
2022/03/02 00:42:10;;;;;;;14.98;9.85;;;;;;;;;;5094913;28;20199;-62
2022/03/02 00:44:36;;;;;;;18.50;10.32;;;;;;;;;;5094571;28;20183;-62
2022/03/02 00:47:03;;;;;;;17.27;9.50;;;;;;;;;;5094956;28;20174;-62
2022/03/02 00:49:31;;;;;;;15.18;10.00;;;;;;;;;;5094666;28;20513;-61
2022/03/02 00:51:57;;;;;;;15.07;9.68;;;;;;;;;;5094336;28;20591;-62
2022/03/02 00:54:23;;;;;;;16.50;9.95;;;;;;;;;;5094402;28;20163;-62
2022/03/02 00:56:49;;;;;;;15.27;9.68;;;;;;;;;;5094325;28;20167;-62
2022/03/02 00:59:16;;;;;;;16.13;10.02;;;;;;;;;;5093564;28;20174;-62
2022/03/02 01:01:42;;;;;;;17.02;10.02;;;;;;;;;;5094563;28;20187;-62
2022/03/02 01:04:08;;;;;;;16.30;9.65;;;;;;;;;;5094214;28;20187;-63
2022/03/02 01:06:34;;;;;;;18.20;10.15;;;;;;;;;;5094242;28;20188;-62
2022/03/02 01:09:00;;;;;;;16.70;9.93;;;;;;;;;;5094351;28;20174;-62
2022/03/02 01:11:26;;;;;;;16.05;9.30;;;;;;;;;;5094396;28;20519;-63
2022/03/02 01:13:52;;;;;;;14.43;9.68;;;;;;;;;;5094209;28;20175;-63
2022/03/02 01:16:18;;;;;;;18.08;9.95;;;;;;;;;;5094099;28;20473;-62
2022/03/02 01:18:44;;;;;;;17.27;10.27;;;;;;;;;;5093945;28;20170;-62
2022/03/02 01:21:11;;;;;;;17.00;9.90;;;;;;;;;;5094080;28;20490;-63
2022/03/02 01:23:36;;;;;;;16.42;9.80;;;;;;;;;;5093921;28;20194;-63
2022/03/02 01:26:02;;;;;;;14.90;9.63;;;;;;;;;;5093967;28;20160;-62
2022/03/02 01:28:28;;;;;;;14.75;9.48;;;;;;;;;;5093915;28;20163;-62
2022/03/02 01:30:54;;;;;;;14.98;9.77;;;;;;;;;;5094053;28;20666;-62
2022/03/02 01:33:20;;;;;;;15.40;9.63;;;;;;;;;;5093011;28;20168;-62
2022/03/02 01:35:46;;;;;;;15.52;9.48;;;;;;;;;;5093933;28;20163;-62
2022/03/02 01:38:12;;;;;;;18.58;10.05;;;;;;;;;;5094108;28;20179;-62
2022/03/02 01:40:38;;;;;;;17.05;9.73;;;;;;;;;;5093757;28;20284;-62
2022/03/02 01:43:05;;;;;;;16.80;10.02;;;;;;;;;;5093784;28;20286;-62
2022/03/02 01:45:31;;;;;;;17.55;11.20;;;;;;;;;;5094102;28;20159;-62
2022/03/02 01:48:01;;;;;;;17.77;10.10;;;;;;;;;;5092646;28;20216;-62
2022/03/02 01:50:27;;;;;;;18.30;9.65;;;;;;;;;;5093772;28;20638;-61
2022/03/02 01:52:53;;;;;;;15.10;9.73;;;;;;;;;;5093979;28;20243;-62
2022/03/02 01:55:19;;;;;;;14.43;9.27;;;;;;;;;;5093681;28;20186;-62
2022/03/02 01:57:45;;;;;;;15.23;9.85;;;;;;;;;;5093682;28;20175;-61
2022/03/02 02:00:13;;;;;;;17.60;11.25;;;;;;;;;;5093696;28;20211;-62
2022/03/02 02:02:40;;;;;;;20.15;10.50;;;;;;;;;;5093273;28;20193;-61
2022/03/02 02:05:06;;;;;;;19.45;10.52;;;;;;;;;;5093809;28;20167;-62
2022/03/02 02:07:32;;;;;;;18.35;10.95;;;;;;;;;;5093494;28;20541;-63
2022/03/02 02:09:59;;;;;;;18.60;10.68;;;;;;;;;;5093925;28;20174;-62
2022/03/02 02:12:25;;;;;;;18.08;10.90;;;;;;;;;;5093694;28;20267;-62
2022/03/02 02:14:51;;;;;;;15.32;10.15;;;;;;;;;;5093547;28;20498;-62
2022/03/02 02:17:17;;;;;;;17.98;11.02;;;;;;;;;;5093496;28;20170;-62
2022/03/02 02:19:43;;;;;;;17.08;10.60;;;;;;;;;;5093475;28;20643;-63
2022/03/02 02:22:09;;;;;;;18.23;10.35;;;;;;;;;;5093645;28;20163;-62
2022/03/02 02:24:35;;;;;;;16.30;10.35;;;;;;;;;;5093197;28;20192;-62
2022/03/02 02:27:01;;;;;;;15.23;9.63;;;;;;;;;;5093462;28;20209;-63
2022/03/02 02:29:29;;;;;;;16.70;10.02;;;;;;;;;;5093738;28;20181;-62
2022/03/02 02:31:55;;;;;;;15.45;9.95;;;;;;;;;;5093361;28;20218;-62
2022/03/02 02:34:20;;;;;;;18.35;10.02;;;;;;;;;;5093564;28;20167;-62
2022/03/02 02:36:47;;;;;;;15.85;9.85;;;;;;;;;;5093371;28;20186;-62
2022/03/02 02:39:13;;;;;;;16.00;10.15;;;;;;;;;;5093141;28;20591;-62
2022/03/02 02:41:39;;;;;;;15.18;9.70;;;;;;;;;;5093562;28;20237;-62
2022/03/02 02:44:05;;;;;;;22.27;9.98;;;;;;;;;;5093069;28;20191;-62
2022/03/02 02:46:31;;;;;;;17.20;9.85;;;;;;;;;;5096898;28;20242;-63
2022/03/02 02:48:57;;;;;;;17.55;10.18;;;;;;;;;;5097193;28;20151;-62
2022/03/02 02:51:22;;;;;;;16.35;9.68;;;;;;;;;;5096944;28;20610;-62
2022/03/02 02:53:48;;;;;;;16.98;10.02;;;;;;;;;;5096916;28;20163;-63
2022/03/02 02:56:14;;;;;;;18.33;10.00;;;;;;;;;;5096600;28;20193;-62
2022/03/02 02:58:40;;;;;;;15.02;9.55;;;;;;;;;;5097051;28;20535;-62
2022/03/02 03:01:06;;;;;;;17.45;9.20;;;;;;;;;;5096761;28;20183;-63
2022/03/02 03:03:32;;;;;;;17.88;11.18;;;;;;;;;;5096397;28;20436;-61
2022/03/02 03:05:58;;;;;;;17.30;9.50;;;;;;;;;;5096711;28;20164;-60
2022/03/02 03:08:24;;;;;;;15.23;9.93;;;;;;;;;;5096772;28;20167;-61
2022/03/02 03:10:50;;;;;;;15.82;9.52;;;;;;;;;;5096731;28;20564;-60
2022/03/02 03:13:17;;;;;;;17.00;9.43;;;;;;;;;;5097324;28;20266;-61
2022/03/02 03:15:43;;;;;;;17.75;9.80;;;;;;;;;;5096999;28;20199;-61
2022/03/02 03:18:10;;;;;;;18.30;9.75;;;;;;;;;;5096638;28;20190;-60
2022/03/02 03:20:36;;;;;;;15.57;9.00;;;;;;;;;;5096571;28;20175;-60
2022/03/02 03:23:02;;;;;;;18.23;10.35;;;;;;;;;;5096319;28;20197;-61
2022/03/02 03:25:28;;;;;;;18.00;9.73;;;;;;;;;;5096398;28;20190;-61
2022/03/02 03:27:55;;;;;;;17.27;9.95;;;;;;;;;;5096491;28;20202;-60
2022/03/02 03:30:22;;;;;;;17.13;9.73;;;;;;;;;;5097032;28;20191;-61
2022/03/02 03:32:48;;;;;;;15.30;10.07;;;;;;;;;;5095276;28;20179;-61
2022/03/02 03:35:15;;;;;;;17.48;10.05;;;;;;;;;;5096115;28;20218;-61
2022/03/02 03:37:42;;;;;;;17.83;9.43;;;;;;;;;;5096193;28;20163;-60
2022/03/02 03:40:09;;;;;;;18.27;10.10;;;;;;;;;;5096210;28;20159;-61
2022/03/02 03:42:35;;;;;;;17.77;9.93;;;;;;;;;;5096013;28;20254;-61
2022/03/02 03:45:02;;;;;;;19.63;10.13;;;;;;;;;;5095837;28;20246;-58
2022/03/02 03:47:28;;;;;;;16.42;10.15;;;;;;;;;;5096531;28;20312;-61
2022/03/02 03:49:54;;;;;;;17.23;10.68;;;;;;;;;;5096042;28;20191;-61
2022/03/02 03:52:20;;;;;;;16.63;10.73;;;;;;;;;;5096123;28;20174;-60
2022/03/02 03:54:46;;;;;;;18.13;9.88;;;;;;;;;;5095969;28;20182;-61
2022/03/02 03:57:11;;;;;;;18.02;10.32;;;;;;;;;;5094751;28;20172;-62
2022/03/02 03:59:37;;;;;;;16.95;10.20;;;;;;;;;;5095889;28;20171;-61
2022/03/02 04:02:03;;;;;;;20.27;10.85;;;;;;;;;;5096053;28;20160;-60
2022/03/02 04:04:29;;;;;;;14.05;9.52;;;;;;;;;;5095488;28;20234;-61
2022/03/02 04:06:55;;;;;;;15.82;9.55;;;;;;;;;;5095499;28;20195;-61
2022/03/02 04:09:21;;;;;;;15.85;10.55;;;;;;;;;;5095797;28;20195;-60
2022/03/02 04:11:47;;;;;;;16.05;9.57;;;;;;;;;;5095578;28;20216;-60
2022/03/02 04:14:13;;;;;;;16.80;9.95;;;;;;;;;;5095294;28;20163;-61
2022/03/02 04:16:39;;;;;;;18.23;10.85;;;;;;;;;;5095728;28;20836;-61
2022/03/02 04:19:05;;;;;;;20.10;11.25;;;;;;;;;;5095762;28;20324;-61
2022/03/02 04:21:32;;;;;;;19.10;11.63;;;;;;;;;;5095622;28;20246;-60
2022/03/02 04:23:58;;;;;;;18.55;11.10;;;;;;;;;;5095083;28;20195;-61
2022/03/02 04:26:24;;;;;;;18.48;11.25;;;;;;;;;;5095122;28;20168;-61
2022/03/02 04:28:50;;;;;;;18.38;10.98;;;;;;;;;;5095195;28;20742;-60
2022/03/02 04:31:16;;;;;;;19.77;11.73;;;;;;;;;;5095088;28;20246;-61
2022/03/02 04:33:42;;;;;;;18.45;11.57;;;;;;;;;;5094896;28;20618;-61
2022/03/02 04:36:09;;;;;;;20.33;11.85;;;;;;;;;;5094997;28;20497;-61
2022/03/02 04:38:35;;;;;;;22.38;11.85;;;;;;;;;;5094951;28;20557;-60
2022/03/02 04:41:01;;;;;;;17.92;11.43;;;;;;;;;;5094768;28;20163;-61
2022/03/02 04:43:27;;;;;;;17.85;11.25;;;;;;;;;;5094712;28;20527;-60
2022/03/02 04:45:53;;;;;;;18.15;10.48;;;;;;;;;;5094664;28;20550;-61
2022/03/02 04:48:19;;;;;;;19.35;11.45;;;;;;;;;;5094949;28;20155;-61
2022/03/02 04:50:45;;;;;;;17.88;11.20;;;;;;;;;;5095185;28;20155;-61
2022/03/02 04:53:14;;;;;;;20.73;11.15;;;;;;;;;;5095071;28;20167;-60
2022/03/02 04:55:40;;;;;;;18.20;11.43;;;;;;;;;;5095630;28;20232;-61
2022/03/02 04:58:06;;;;;;;19.70;10.50;;;;;;;;;;5095393;28;20220;-61
2022/03/02 05:00:35;;;;;;;18.45;10.27;;;;;;;;;;5095227;28;20266;-60
2022/03/02 05:03:02;;;;;;;18.90;10.68;;;;;;;;;;5095445;28;20195;-59
2022/03/02 05:05:29;;;;;;;18.10;10.75;;;;;;;;;;5094892;28;20242;-60
2022/03/02 05:07:55;;;;;;;18.55;10.32;;;;;;;;;;5094307;28;20223;-60
2022/03/02 05:10:22;;;;;;;16.17;9.65;;;;;;;;;;5094484;28;20175;-60
2022/03/02 05:12:48;;;;;;;16.95;9.95;;;;;;;;;;5094460;28;20533;-61
2022/03/02 05:15:15;;;;;;;18.65;10.20;;;;;;;;;;5094390;28;20253;-60
2022/03/02 05:17:41;;;;;;;19.77;10.82;;;;;;;;;;5094374;28;20155;-59
2022/03/02 05:20:08;;;;;;;19.67;10.80;;;;;;;;;;5094413;28;20170;-58
2022/03/02 05:22:34;;;;;;;17.52;10.35;;;;;;;;;;5102884;28;20187;-61
2022/03/02 05:25:00;;;;;;;15.93;9.93;;;;;;;;;;5100344;28;20626;-61
2022/03/02 05:27:26;;;;;;;20.27;10.80;;;;;;;;;;5094360;28;20265;-60
2022/03/02 05:29:52;;;;;;;24.38;11.00;;;;;;;;;;5094188;28;20170;-60
2022/03/02 05:32:18;;;;;;;17.45;10.35;;;;;;;;;;5094458;28;20163;-60
2022/03/02 05:34:44;;;;;;;19.55;10.73;;;;;;;;;;5094470;28;20607;-64
2022/03/02 05:37:10;;;;;;;15.63;9.52;;;;;;;;;;5094054;28;20539;-65
2022/03/02 05:39:36;;;;;;;17.13;9.85;;;;;;;;;;5094253;28;20216;-64
2022/03/02 05:42:03;;;;;;;18.88;10.30;;;;;;;;;;5093999;28;20560;-63
2022/03/02 05:44:29;;;;;;;17.45;10.60;;;;;;;;;;5094444;28;20187;-64
2022/03/02 05:46:54;;;;;;;17.73;11.07;;;;;;;;;;5093898;28;20178;-64
2022/03/02 05:49:20;;;;;;;20.20;10.45;;;;;;;;;;5094039;28;20178;-64
2022/03/02 05:51:46;;;;;;;23.30;10.57;;;;;;;;;;5094305;28;20524;-64
2022/03/02 05:54:12;;;;;;;17.05;10.35;;;;;;;;;;5093838;28;20255;-65
2022/03/02 05:56:39;;;;;;;19.50;11.05;;;;;;;;;;5093829;28;20191;-65
2022/03/02 05:59:05;;;;;;;19.20;11.57;;;;;;;;;;5094219;28;20171;-65
2022/03/02 06:01:32;;;;;;;17.98;11.20;;;;;;;;;;5094357;28;20262;-65
2022/03/02 06:03:58;;;;;;;17.67;10.50;;;;;;;;;;5093624;28;20547;-65
2022/03/02 06:06:24;;;;;;;16.48;10.48;;;;;;;;;;5092715;28;20168;-65
2022/03/02 06:08:50;;;;;;;21.20;10.80;;;;;;;;;;5093941;28;20170;-64
2022/03/02 06:11:17;;;;;;;17.02;10.35;;;;;;;;;;5094505;28;20228;-65
2022/03/02 06:13:43;;;;;;;20.52;11.43;;;;;;;;;;5094187;28;20172;-64
2022/03/02 06:16:09;;;;;;;18.65;10.93;;;;;;;;;;5093843;28;20198;-64
2022/03/02 06:18:35;;;;;;;22.08;10.30;;;;;;;;;;5094077;28;20190;-65
2022/03/02 06:21:02;;;;;;;16.15;10.43;;;;;;;;;;5096616;28;20159;-65
2022/03/02 06:23:28;;;;;;;19.05;10.98;;;;;;;;;;5097785;28;20202;-65
2022/03/02 06:25:54;;;;;;;19.40;11.40;;;;;;;;;;5098068;28;20500;-64
2022/03/02 06:28:21;;;;;;;19.48;11.50;;;;;;;;;;5097445;28;20600;-65
2022/03/02 06:30:47;;;;;;;21.73;11.50;;;;;;;;;;5097602;28;20172;-65
2022/03/02 06:33:15;;;;;;;17.90;11.35;;;;;;;;;;5097546;28;20175;-64
2022/03/02 06:35:41;;;;;;;19.10;11.15;;;;;;;;;;5097703;28;20174;-65
2022/03/02 06:38:07;;;;;;;18.05;10.75;;;;;;;;;;5097470;28;20163;-65
2022/03/02 06:40:33;;;;;;;19.85;11.02;;;;;;;;;;5097276;28;20551;-65
2022/03/02 06:43:01;;;;;;;17.25;11.02;;;;;;;;;;5097293;28;20219;-64
2022/03/02 06:45:28;;;;;;;17.77;11.27;;;;;;;;;;5096891;28;20167;-65
2022/03/02 06:47:58;;;;;;;17.50;10.48;;;;;;;;;;5097326;28;20207;-66
2022/03/02 06:50:29;;;;;;;18.65;10.93;;;;;;;;;;5097453;28;20267;-65
2022/03/02 06:52:55;;;;;;;19.80;11.63;;;;;;;;;;5097016;28;20174;-64
2022/03/02 06:55:21;;;;;;;21.05;11.02;;;;;;;;;;5097379;28;20254;-64
2022/03/02 06:57:56;;;;;;;18.05;10.98;;;;;;;;;;5097177;28;20172;-64
2022/03/02 07:00:23;;;;;;;19.35;10.90;;;;;;;;;;5096941;28;20186;-65
2022/03/02 07:03:03;;;;;;;20.65;11.00;;;;;;;;;;5096905;28;20167;-63
2022/03/02 07:05:29;;;;;;;18.17;10.80;;;;;;;;;;5096857;28;20165;-65
2022/03/02 07:07:55;;;;;;;23.17;12.40;;;;;;;;;;5097335;28;20156;-65
2022/03/02 07:10:21;;;;;;;19.77;11.80;;;;;;;;;;5097345;28;20164;-63
2022/03/02 07:12:47;;;;;;;28.35;12.13;;;;;;;;;;5098314;28;20513;-63
2022/03/02 07:15:13;;;;;;;21.85;11.50;;;;;;;;;;5098625;28;20175;-64
2022/03/02 07:17:39;;;;;;;14.73;10.38;;;;;;;;;;5099145;28;20609;-65
2022/03/02 07:20:07;;;;;;;20.52;12.40;;;;;;;;;;5103268;28;20171;-65
2022/03/02 07:22:34;;;;;;;18.95;11.25;;;;;;;;;;5104875;28;20662;-65
2022/03/02 07:25:03;;;;;;;18.85;11.57;;;;;;;;;;5108191;28;20175;-64
2022/03/02 07:27:30;;;;;;;19.42;11.30;;;;;;;;;;5107193;28;20163;-65
2022/03/02 07:29:56;;;;;;;19.98;12.70;;;;;;;;;;5107920;28;20176;-64
2022/03/02 07:32:23;;;;;;;22.77;11.15;;;;;;;;;;5098319;28;20167;-64
2022/03/02 07:34:54;;;;;;;20.50;11.15;;;;;;;;;;5096798;28;20163;-63
2022/03/02 07:37:21;;;;;;;23.27;11.85;;;;;;;;;;5096961;28;20513;-63
2022/03/02 07:39:48;;;;;;;21.98;11.77;;;;;;;;;;5097089;28;20163;-63
2022/03/02 07:42:14;;;;;;;18.17;12.07;;;;;;;;;;5096350;28;20163;-64
2022/03/02 07:44:41;;;;;;;21.33;12.85;;;;;;;;;;5096915;28;20191;-64
2022/03/02 07:47:07;;;;;;;21.23;12.02;;;;;;;;;;5097213;28;20193;-63
2022/03/02 07:49:33;;;;;;;19.65;11.25;;;;;;;;;;5103200;28;20163;-64
2022/03/02 07:52:01;;;;;;;21.65;11.38;;;;;;;;;;5106081;28;20599;-64
2022/03/02 07:54:28;;;;;;;19.75;11.52;;;;;;;;;;5106146;28;20178;-65
2022/03/02 07:56:55;;;;;;;21.15;12.60;;;;;;;;;;5106772;28;20178;-65
2022/03/02 07:59:21;;;;;;;23.40;13.05;;;;;;;;;;5104941;28;20211;-63
2022/03/02 08:01:48;;;;;;;19.65;12.45;;;;;;;;;;5104852;28;20194;-64
2022/03/02 08:04:14;;;;;;;20.13;12.93;;;;;;;;;;5111825;28;20192;-62
2022/03/02 08:06:41;;;;;;;20.02;12.48;;;;;;;;;;5113956;28;20217;-62
2022/03/02 08:09:08;;;;;;;21.60;13.13;;;;;;;;;;5113409;28;20239;-62
2022/03/02 08:11:35;;;;;;;20.77;12.82;;;;;;;;;;5110503;28;20166;-62
2022/03/02 08:14:01;;;;;;;23.98;13.45;;;;;;;;;;5111838;28;20187;-62
2022/03/02 08:16:28;;;;;;;23.63;12.38;;;;;;;;;;5113397;28;20160;-61
2022/03/02 08:18:53;;;;;;;20.77;12.30;;;;;;;;;;5106594;28;20254;-61
2022/03/02 08:21:21;;;;;;;20.15;13.40;;;;;;;;;;5095822;28;20199;-61
2022/03/02 08:23:49;;;;;;;19.67;13.00;;;;;;;;;;5095521;28;20188;-62
2022/03/02 08:26:18;;;;;;;24.92;13.70;;;;;;;;;;5096038;28;20217;-61
2022/03/02 08:28:44;;;;;;;19.02;12.95;;;;;;;;;;5095833;28;20192;-62
2022/03/02 08:31:10;;;;;;;21.15;13.85;;;;;;;;;;5095742;28;20178;-62
2022/03/02 08:33:37;;;;;;;20.73;12.32;;;;;;;;;;5095284;28;20228;-62
2022/03/02 08:36:03;;;;;;;20.63;13.23;;;;;;;;;;5095841;28;20187;-62
2022/03/02 08:38:29;;;;;;;21.98;13.77;;;;;;;;;;5095389;28;20193;-61
2022/03/02 08:40:55;;;;;;;21.98;12.57;;;;;;;;;;5095341;28;20262;-61
2022/03/02 08:43:21;;;;;;;24.88;13.27;;;;;;;;;;5095048;28;20234;-61
2022/03/02 08:45:48;;;;;;;23.38;13.57;;;;;;;;;;5096017;28;20203;-62
2022/03/02 08:48:19;;;;;;;23.38;14.10;;;;;;;;;;5095391;28;20203;-59
2022/03/02 08:50:45;;;;;;;23.25;13.73;;;;;;;;;;5095186;28;20239;-59
2022/03/02 08:53:15;;;;;;;21.33;13.15;;;;;;;;;;5095569;28;20171;-61
2022/03/02 08:55:42;;;;;;;23.30;13.73;;;;;;;;;;5095802;28;20229;-62
2022/03/02 08:58:08;;;;;;;18.88;13.43;;;;;;;;;;5095558;28;20167;-60
2022/03/02 09:00:34;;;;;;;25.27;13.57;;;;;;;;;;5095269;28;20263;-62
2022/03/02 09:03:02;;;;;;;21.38;12.70;;;;;;;;;;5095470;28;20272;-62
2022/03/02 09:05:28;;;;;;;21.65;13.32;;;;;;;;;;5095339;28;20205;-62
2022/03/02 09:07:55;;;;;;;17.98;12.57;;;;;;;;;;5095494;28;20168;-62
2022/03/02 09:10:22;;;;;;;22.42;13.30;;;;;;;;;;5095253;28;20167;-62
2022/03/02 09:12:48;;;;;;;19.17;12.93;;;;;;;;;;5095545;28;20159;-62
2022/03/02 09:15:13;;;;;;;19.55;13.25;;;;;;;;;;5095772;28;20258;-62
2022/03/02 09:17:40;;;;;;;18.42;13.13;;;;;;;;;;5095535;28;20163;-62
2022/03/02 09:20:07;;;;;;;18.90;13.30;;;;;;;;;;5095071;28;20199;-62
2022/03/02 09:22:35;;;;;;;21.40;13.38;;;;;;;;;;5095431;28;20191;-62
2022/03/02 09:25:02;;;;;;;27.23;15.65;;;;;;;;;;5095150;28;20195;-62
2022/03/02 09:27:30;;;;;;;24.80;15.32;;;;;;;;;;5094652;28;20175;-62
2022/03/02 09:29:59;;;;;;;26.25;13.68;;;;;;;;;;5095141;28;20164;-62
2022/03/02 09:32:26;;;;;;;19.38;13.25;;;;;;;;;;5095003;28;20252;-62
2022/03/02 09:34:54;;;;;;;23.05;13.70;;;;;;;;;;5095214;28;20209;-62
2022/03/02 09:37:23;;;;;;;22.17;13.68;;;;;;;;;;5094827;28;20176;-62
2022/03/02 09:39:50;;;;;;;20.77;13.63;;;;;;;;;;5094231;28;20163;-61
2022/03/02 09:42:19;;;;;;;23.27;13.90;;;;;;;;;;5094751;28;20182;-62
2022/03/02 09:44:52;;;;;;;21.92;13.05;;;;;;;;;;5094683;28;20207;-62
2022/03/02 09:47:20;;;;;;;22.85;12.85;;;;;;;;;;5094316;28;20180;-62
2022/03/02 09:49:52;;;;;;;20.77;13.82;;;;;;;;;;5093902;28;20266;-61
2022/03/02 09:52:19;;;;;;;22.73;14.27;;;;;;;;;;5094016;28;20480;-61
2022/03/02 09:54:46;;;;;;;23.25;14.07;;;;;;;;;;5095388;28;20167;-61
2022/03/02 09:57:14;;;;;;;20.48;13.80;;;;;;;;;;5097978;28;20494;-61
2022/03/02 09:59:40;;;;;;;22.27;14.77;;;;;;;;;;5097802;28;20183;-61
2022/03/02 10:02:07;;;;;;;20.77;13.88;;;;;;;;;;5098169;28;20221;-61
2022/03/02 10:04:35;;;;;;;22.25;14.13;;;;;;;;;;5097998;28;20228;-61
2022/03/02 10:09:47;;;;;;;20.13;13.98;;;;;;;;;;5098127;28;20232;-61
2022/03/02 10:12:15;;;;;;;22.42;13.27;;;;;;;;;;5097751;28;20164;-61
2022/03/02 10:14:42;;;;;;;22.90;13.57;;;;;;;;;;5098023;28;20178;-62
2022/03/02 10:17:12;;;;;;;22.27;14.18;;;;;;;;;;5096446;28;20171;-61
2022/03/02 10:19:45;;;;;;;22.15;13.60;;;;;;;;;;5097469;28;20681;-61
2022/03/02 10:22:20;;;;;;;19.95;13.18;;;;;;;;;;5097704;28;20166;-61
2022/03/02 10:24:49;;;;;;;20.02;13.50;;;;;;;;;;5097313;28;20237;-61
2022/03/02 10:27:27;;;;;;;18.70;13.23;;;;;;;;;;5097329;28;20156;-62
2022/03/02 10:30:01;;;;;;;19.58;13.38;;;;;;;;;;5097521;28;20151;-62
2022/03/02 10:32:31;;;;;;;19.05;13.07;;;;;;;;;;5097389;28;20178;-62
2022/03/02 10:35:03;;;;;;;21.73;13.10;;;;;;;;;;5097705;28;20172;-61
2022/03/02 10:37:31;;;;;;;16.50;10.13;;;;;;;;;;5097513;28;20217;-62
2022/03/02 10:40:13;;;;;;;17.25;11.50;;;;;;;;;;5097131;28;20167;-60
2022/03/02 10:42:57;;;;;;;22.75;13.60;;;;;;;;;;5097472;28;20159;-62
2022/03/02 10:45:27;;;;;;;19.30;11.90;;;;;;;;;;5096967;28;20167;-61
2022/03/02 10:47:53;;;;;;;21.30;13.63;;;;;;;;;;5097063;28;20160;-61
2022/03/02 10:50:20;;;;;;;26.83;13.90;;;;;;;;;;5096863;28;20167;-61
2022/03/02 10:52:50;;;;;;;20.60;13.70;;;;;;;;;;5096848;28;20235;-62
2022/03/02 10:55:16;;;;;;;23.30;13.50;;;;;;;;;;5096892;28;20221;-61
2022/03/02 10:57:44;;;;;;;20.38;12.85;;;;;;;;;;5096912;28;20172;-62
2022/03/02 11:00:14;;;;;;;21.30;13.90;;;;;;;;;;5096471;28;20203;-62
2022/03/02 11:02:41;;;;;;;18.95;13.07;;;;;;;;;;5096810;28;20170;-62
2022/03/02 11:05:09;;;;;;;21.42;13.70;;;;;;;;;;5095906;28;20219;-61
2022/03/02 11:07:36;;;;;;;20.27;13.95;;;;;;;;;;5095852;28;20176;-61
2022/03/02 11:10:04;;;;;;;23.58;14.90;;;;;;;;;;5096781;28;20163;-61
2022/03/02 11:12:30;;;;;;;21.35;15.30;;;;;;;;;;5096384;28;20176;-61
2022/03/02 11:14:58;;;;;;;24.48;15.43;;;;;;;;;;5096262;28;20167;-62
2022/03/02 11:17:24;;;;;;;24.08;15.90;;;;;;;;;;5097568;28;20482;-61
2022/03/02 11:19:50;;;;;;;27.13;16.52;;;;;;;;;;5096616;28;20297;-62
2022/03/02 11:22:18;;;;;;;28.48;18.02;;;;;;;;;;5096606;28;20254;-61
2022/03/02 11:24:44;;;;;;;26.52;16.95;;;;;;;;;;5096232;28;20195;-61
2022/03/02 11:27:25;;;;;;;26.40;16.42;;;;;;;;;;5096437;28;20507;-63
2022/03/02 11:30:00;;;;;;;26.38;16.45;;;;;;;;;;5095335;28;20155;-61
2022/03/02 11:32:26;;;;;;;27.02;16.88;;;;;;;;;;5096384;28;20163;-61
2022/03/02 11:34:58;;;;;;;24.90;16.25;;;;;;;;;;5095499;28;20250;-62
2022/03/02 11:37:24;;;;;;;28.70;18.63;;;;;;;;;;5095631;28;20159;-61
2022/03/02 11:39:50;;;;;;;26.80;17.42;;;;;;;;;;5096030;28;20175;-61
2022/03/02 11:42:17;;;;;;;27.48;18.00;;;;;;;;;;5095859;28;20175;-62
2022/03/02 11:44:44;;;;;;;26.55;17.65;;;;;;;;;;5095783;28;20199;-61
2022/03/02 11:47:12;;;;;;;26.65;17.63;;;;;;;;;;5095687;28;20170;-61
2022/03/02 11:49:45;;;;;;;29.27;17.92;;;;;;;;;;5095388;28;20460;-61
2022/03/02 11:52:14;;;;;;;27.08;18.15;;;;;;;;;;5095705;28;20171;-62
2022/03/02 11:54:42;;;;;;;27.83;17.55;;;;;;;;;;5095481;28;20207;-61
2022/03/02 11:57:08;;;;;;;28.42;17.42;;;;;;;;;;5095423;28;20164;-64
2022/03/02 11:59:36;;;;;;;26.30;17.63;;;;;;;;;;5094981;28;20179;-61
2022/03/02 12:02:11;;;;;;;26.15;16.73;;;;;;;;;;5095549;28;20242;-62
2022/03/02 12:04:37;;;;;;;27.67;16.88;;;;;;;;;;5095013;28;20202;-61
2022/03/02 12:07:04;;;;;;;27.80;18.45;;;;;;;;;;5095101;28;20171;-61
2022/03/02 12:09:31;;;;;;;25.08;16.75;;;;;;;;;;5095034;28;20221;-61
2022/03/02 12:12:11;;;;;;;25.05;16.02;;;;;;;;;;5094267;28;20156;-61
2022/03/02 12:14:41;;;;;;;28.58;17.02;;;;;;;;;;5095258;28;20171;-61
2022/03/02 12:17:17;;;;;;;26.65;16.63;;;;;;;;;;5094722;28;20175;-60
2022/03/02 12:19:48;;;;;;;26.65;17.45;;;;;;;;;;5095387;28;20171;-61
2022/03/02 12:22:17;;;;;;;26.00;17.17;;;;;;;;;;5094753;28;20585;-61
2022/03/02 12:24:44;;;;;;;26.63;16.30;;;;;;;;;;5094877;28;20203;-60
2022/03/02 12:27:11;;;;;;;27.88;17.73;;;;;;;;;;5095035;28;20254;-61
2022/03/02 12:29:38;;;;;;;27.17;17.83;;;;;;;;;;5094510;28;20212;-61
2022/03/02 12:32:05;;;;;;;25.63;16.27;;;;;;;;;;5094845;28;20175;-61
2022/03/02 12:34:34;;;;;;;26.85;18.00;;;;;;;;;;5094831;28;20232;-61
2022/03/02 12:37:00;;;;;;;29.88;17.55;;;;;;;;;;5094466;28;20159;-61
2022/03/02 12:39:26;;;;;;;27.38;17.23;;;;;;;;;;5094616;28;20163;-61
2022/03/02 12:41:52;;;;;;;26.90;17.48;;;;;;;;;;5094573;28;20172;-61
2022/03/02 12:44:19;;;;;;;26.58;16.80;;;;;;;;;;5094642;28;20260;-61
2022/03/02 12:46:45;;;;;;;26.10;16.73;;;;;;;;;;5094689;28;20171;-61
2022/03/02 12:49:12;;;;;;;25.80;17.23;;;;;;;;;;5094499;28;20168;-61
2022/03/02 12:51:38;;;;;;;24.02;16.27;;;;;;;;;;5094183;28;20170;-62
2022/03/02 12:54:04;;;;;;;30.20;17.30;;;;;;;;;;5094301;28;20243;-61
2022/03/02 12:56:30;;;;;;;23.55;15.77;;;;;;;;;;5094626;28;20597;-61
2022/03/02 12:58:56;;;;;;;25.25;17.00;;;;;;;;;;5094212;28;20164;-62
2022/03/02 13:01:22;;;;;;;23.63;15.50;;;;;;;;;;5094309;28;20206;-61
2022/03/02 13:03:51;;;;;;;25.80;16.98;;;;;;;;;;5094608;28;20196;-61
2022/03/02 13:06:24;;;;;;;27.50;17.65;;;;;;;;;;5099394;28;20207;-63
2022/03/02 13:08:54;;;;;;;23.85;16.35;;;;;;;;;;5094335;28;20156;-62
2022/03/02 13:11:31;;;;;;;25.23;16.83;;;;;;;;;;5094409;28;20212;-62
2022/03/02 13:13:57;;;;;;;25.83;16.48;;;;;;;;;;5094552;28;20302;-62
2022/03/02 13:16:27;;;;;;;29.55;17.48;;;;;;;;;;5094768;28;20163;-61
2022/03/02 13:18:55;;;;;;;26.88;17.30;;;;;;;;;;5094392;28;20262;-62
2022/03/02 13:21:23;;;;;;;27.15;16.88;;;;;;;;;;5093835;28;20625;-62
2022/03/02 13:24:01;;;;;;;27.90;17.60;;;;;;;;;;5094014;28;20517;-62
2022/03/02 13:26:27;;;;;;;27.48;17.50;;;;;;;;;;5094281;28;20541;-62
2022/03/02 13:29:01;;;;;;;26.50;17.58;;;;;;;;;;5093969;28;20160;-62
2022/03/02 13:31:27;;;;;;;28.45;17.42;;;;;;;;;;5093900;28;20152;-62
2022/03/02 13:33:56;;;;;;;24.45;16.15;;;;;;;;;;5093760;28;20220;-62
2022/03/02 13:36:41;;;;;;;32.10;17.67;;;;;;;;;;5093784;28;20167;-62
2022/03/02 13:39:11;;;;;;;28.20;17.40;;;;;;;;;;5093943;28;20160;-63
2022/03/02 13:41:54;;;;;;;29.55;17.08;;;;;;;;;;5094176;28;20168;-62
2022/03/02 13:44:26;;;;;;;28.30;17.85;;;;;;;;;;5093929;28;20274;-61
2022/03/02 13:47:07;;;;;;;26.48;17.17;;;;;;;;;;5094576;28;20167;-62
2022/03/02 13:49:53;;;;;;;28.88;17.63;;;;;;;;;;5094265;28;20225;-62
2022/03/02 13:52:22;;;;;;;28.30;18.40;;;;;;;;;;5094002;28;20224;-62
2022/03/02 13:54:48;;;;;;;31.33;17.98;;;;;;;;;;5093862;28;20167;-62
2022/03/02 13:57:23;;;;;;;29.10;17.70;;;;;;;;;;5093541;28;20199;-62
2022/03/02 14:00:09;;;;;;;29.13;17.80;;;;;;;;;;5093751;28;20638;-62
2022/03/02 14:02:36;;;;;;;29.38;17.65;;;;;;;;;;5093427;28;20182;-62
2022/03/02 14:05:02;;;;;;;29.70;18.38;;;;;;;;;;5094067;28;20191;-62
2022/03/02 14:07:30;;;;;;;28.23;18.13;;;;;;;;;;5093813;28;20250;-61
2022/03/02 14:10:11;;;;;;;30.55;17.25;;;;;;;;;;5093955;28;20168;-62
2022/03/02 14:12:53;;;;;;;27.92;16.42;;;;;;;;;;5093845;28;20194;-62
2022/03/02 14:15:20;;;;;;;30.65;17.88;;;;;;;;;;5094377;28;20199;-62
2022/03/02 14:17:46;;;;;;;26.02;16.08;;;;;;;;;;5093449;28;20168;-62
2022/03/02 14:20:12;;;;;;;30.23;16.63;;;;;;;;;;5093743;28;20258;-61
2022/03/02 14:22:38;;;;;;;24.35;15.90;;;;;;;;;;5093402;28;20206;-61